ASN logo
ASN Wikibase Occurrence # 226696
Last updated: 3 September 2020
This information is added by users of ASN. Neither ASN nor the Flight Safety Foundation are responsible for the completeness or correctness of this information. If you feel this information is incomplete or incorrect, you can submit corrected information.

Date:30-JUN-2019
Time:c. 17:40 LT
Type:Silhouette image of generic B738 model; specific model in this crash may look slightly different
Boeing 737-8HGSFP (WL)
Owner/operator:Air India Express
Registration: VT-AYA
C/n / msn: 36337/2861
Fatalities:Fatalities: 0 / Occupants: 182
Other fatalities:0
Aircraft damage: Unknown
Location:Mangalore Airport (VOML) -   India
Phase: Landing
Nature:Passenger - Scheduled
Departure airport:Dubai Airport (DXB/OMDB)
Destination airport:Mangalore-Bajpe Airport (IXE/VOML)
Narrative:
Air India Express flight IX384 from Dubai to Mangalore aircraft veered off the taxiway after landing. The aircraft came to a stop across a drainage ditch.

Weather avout the incident time:
VOML 301200Z 27010KT 6000 FEW008 SCT012 BKN080 29/24 Q1006 TEMPO 4000 -RA
VOML 301130Z 28008KT 6000 FEW008 SCT012 BKN080 29/24 Q1006 NOSIG

Sources:

https://telanganatoday.com/air-india-plane-skids-off-runway-in-mangaluru
https://www.flightradar24.com/data/aircraft/vt-aya#2118e4bb


Revision history:

Date/timeContributorUpdates
30-Jun-2019 15:59 harro Added
30-Jun-2019 16:01 harro Updated [Time, Embed code, Narrative]
30-Jun-2019 16:04 harro Updated [Total occupants, Embed code, Narrative]
01-Jul-2019 10:14 Anon. Updated [Nature, Embed code]

Corrections or additions? ... Edit this accident description